sensor_id;sensor_type;location;lat;lon;timestamp;temperature;humidity
80676;SHT30;70041;46.088;18.268;2023-08-24T00:01:16;25.88;70.25
80676;SHT30;70041;46.088;18.268;2023-08-24T00:03:44;25.89;70.34
80676;SHT30;70041;46.088;18.268;2023-08-24T00:06:09;26.01;69.83
80676;SHT30;70041;46.088;18.268;2023-08-24T00:08:36;26.03;69.72
80676;SHT30;70041;46.088;18.268;2023-08-24T00:11:03;26.06;69.53
80676;SHT30;70041;46.088;18.268;2023-08-24T00:13:30;25.92;70.58
80676;SHT30;70041;46.088;18.268;2023-08-24T00:15:56;25.90;69.83
80676;SHT30;70041;46.088;18.268;2023-08-24T00:18:21;25.79;70.68
80676;SHT30;70041;46.088;18.268;2023-08-24T00:20:48;25.73;70.53
80676;SHT30;70041;46.088;18.268;2023-08-24T00:23:13;25.61;71.56
80676;SHT30;70041;46.088;18.268;2023-08-24T00:25:39;25.50;72.41
80676;SHT30;70041;46.088;18.268;2023-08-24T00:28:06;25.39;72.76
80676;SHT30;70041;46.088;18.268;2023-08-24T00:30:31;25.31;73.21
80676;SHT30;70041;46.088;18.268;2023-08-24T00:32:57;25.22;73.70
80676;SHT30;70041;46.088;18.268;2023-08-24T00:35:23;25.22;73.97
80676;SHT30;70041;46.088;18.268;2023-08-24T00:37:48;25.15;73.75
80676;SHT30;70041;46.088;18.268;2023-08-24T00:40:13;25.07;74.31
80676;SHT30;70041;46.088;18.268;2023-08-24T00:45:08;24.92;74.74
80676;SHT30;70041;46.088;18.268;2023-08-24T00:47:39;24.83;75.25
80676;SHT30;70041;46.088;18.268;2023-08-24T00:50:06;24.68;76.42
80676;SHT30;70041;46.088;18.268;2023-08-24T00:52:32;24.61;76.28
80676;SHT30;70041;46.088;18.268;2023-08-24T00:54:59;24.59;76.47
80676;SHT30;70041;46.088;18.268;2023-08-24T00:57:26;24.52;76.84
80676;SHT30;70041;46.088;18.268;2023-08-24T00:59:52;24.47;76.96
80676;SHT30;70041;46.088;18.268;2023-08-24T01:02:17;24.43;77.60
80676;SHT30;70041;46.088;18.268;2023-08-24T01:04:42;24.40;77.16
80676;SHT30;70041;46.088;18.268;2023-08-24T01:07:09;24.41;77.51
80676;SHT30;70041;46.088;18.268;2023-08-24T01:09:35;24.41;77.08
80676;SHT30;70041;46.088;18.268;2023-08-24T01:14:58;24.40;77.33
80676;SHT30;70041;46.088;18.268;2023-08-24T01:17:30;24.36;78.02
80676;SHT30;70041;46.088;18.268;2023-08-24T01:19:58;24.32;77.71
80676;SHT30;70041;46.088;18.268;2023-08-24T01:25:16;24.53;76.16
80676;SHT30;70041;46.088;18.268;2023-08-24T01:27:43;24.59;75.91
80676;SHT30;70041;46.088;18.268;2023-08-24T01:30:09;24.71;75.61
80676;SHT30;70041;46.088;18.268;2023-08-24T01:32:35;24.76;75.16
80676;SHT30;70041;46.088;18.268;2023-08-24T01:35:04;24.80;75.07
80676;SHT30;70041;46.088;18.268;2023-08-24T01:37:30;24.76;75.45
80676;SHT30;70041;46.088;18.268;2023-08-24T01:40:17;24.71;75.93
80676;SHT30;70041;46.088;18.268;2023-08-24T01:42:52;24.73;75.41
80676;SHT30;70041;46.088;18.268;2023-08-24T01:45:22;24.71;76.00
80676;SHT30;70041;46.088;18.268;2023-08-24T01:47:48;24.71;75.71
80676;SHT30;70041;46.088;18.268;2023-08-24T01:50:14;24.68;75.14
80676;SHT30;70041;46.088;18.268;2023-08-24T01:52:40;24.70;75.95
80676;SHT30;70041;46.088;18.268;2023-08-24T01:55:06;24.70;75.38
80676;SHT30;70041;46.088;18.268;2023-08-24T01:57:31;24.67;75.76
80676;SHT30;70041;46.088;18.268;2023-08-24T01:59:57;24.64;75.59
80676;SHT30;70041;46.088;18.268;2023-08-24T02:02:23;24.60;75.79
80676;SHT30;70041;46.088;18.268;2023-08-24T02:04:49;24.60;75.71
80676;SHT30;70041;46.088;18.268;2023-08-24T02:07:14;24.55;76.07
80676;SHT30;70041;46.088;18.268;2023-08-24T02:09:39;24.44;76.21
80676;SHT30;70041;46.088;18.268;2023-08-24T02:12:05;24.41;76.17
80676;SHT30;70041;46.088;18.268;2023-08-24T02:14:30;24.37;76.92
80676;SHT30;70041;46.088;18.268;2023-08-24T02:16:56;24.37;76.28
80676;SHT30;70041;46.088;18.268;2023-08-24T02:19:21;24.47;75.93
80676;SHT30;70041;46.088;18.268;2023-08-24T02:21:46;24.55;75.71
80676;SHT30;70041;46.088;18.268;2023-08-24T02:24:12;24.47;76.03
80676;SHT30;70041;46.088;18.268;2023-08-24T02:26:37;24.40;76.16
80676;SHT30;70041;46.088;18.268;2023-08-24T02:29:03;24.52;75.85
80676;SHT30;70041;46.088;18.268;2023-08-24T02:31:29;24.49;76.22
80676;SHT30;70041;46.088;18.268;2023-08-24T02:33:54;24.49;75.96
80676;SHT30;70041;46.088;18.268;2023-08-24T02:36:19;24.55;75.84
80676;SHT30;70041;46.088;18.268;2023-08-24T02:38:45;24.59;75.77
80676;SHT30;70041;46.088;18.268;2023-08-24T02:41:11;24.50;76.24
80676;SHT30;70041;46.088;18.268;2023-08-24T02:43:39;24.47;76.17
80676;SHT30;70041;46.088;18.268;2023-08-24T02:46:08;24.44;76.52
80676;SHT30;70041;46.088;18.268;2023-08-24T02:48:34;24.52;76.35
80676;SHT30;70041;46.088;18.268;2023-08-24T02:51:00;24.46;76.54
80676;SHT30;70041;46.088;18.268;2023-08-24T02:53:26;24.36;76.62
80676;SHT30;70041;46.088;18.268;2023-08-24T02:55:53;24.33;76.82
80676;SHT30;70041;46.088;18.268;2023-08-24T02:58:19;24.35;76.54
80676;SHT30;70041;46.088;18.268;2023-08-24T03:00:44;24.37;76.59
80676;SHT30;70041;46.088;18.268;2023-08-24T03:03:09;24.37;76.45
80676;SHT30;70041;46.088;18.268;2023-08-24T03:05:35;24.36;76.61
80676;SHT30;70041;46.088;18.268;2023-08-24T03:08:01;24.35;76.42
80676;SHT30;70041;46.088;18.268;2023-08-24T03:10:27;24.39;76.41
80676;SHT30;70041;46.088;18.268;2023-08-24T03:12:52;24.37;76.75
80676;SHT30;70041;46.088;18.268;2023-08-24T03:15:18;24.33;76.62
80676;SHT30;70041;46.088;18.268;2023-08-24T03:17:43;24.33;76.66
80676;SHT30;70041;46.088;18.268;2023-08-24T03:20:09;24.23;76.96
80676;SHT30;70041;46.088;18.268;2023-08-24T03:22:36;24.22;77.29
80676;SHT30;70041;46.088;18.268;2023-08-24T03:25:01;24.22;77.31
80676;SHT30;70041;46.088;18.268;2023-08-24T03:27:28;24.16;77.38
80676;SHT30;70041;46.088;18.268;2023-08-24T03:29:53;24.10;77.69
80676;SHT30;70041;46.088;18.268;2023-08-24T03:32:19;24.10;77.13
80676;SHT30;70041;46.088;18.268;2023-08-24T03:34:44;24.09;76.90
80676;SHT30;70041;46.088;18.268;2023-08-24T03:37:10;24.10;75.95
80676;SHT30;70041;46.088;18.268;2023-08-24T03:39:38;24.15;75.94
80676;SHT30;70041;46.088;18.268;2023-08-24T03:42:04;24.20;76.70
80676;SHT30;70041;46.088;18.268;2023-08-24T03:44:29;24.16;76.48
80676;SHT30;70041;46.088;18.268;2023-08-24T03:46:55;23.81;77.64
80676;SHT30;70041;46.088;18.268;2023-08-24T03:49:20;23.68;77.84
80676;SHT30;70041;46.088;18.268;2023-08-24T03:51:45;23.55;78.22
80676;SHT30;70041;46.088;18.268;2023-08-24T03:54:11;23.50;78.52
80676;SHT30;70041;46.088;18.268;2023-08-24T03:56:37;23.50;78.58
80676;SHT30;70041;46.088;18.268;2023-08-24T03:59:02;23.43;80.03
80676;SHT30;70041;46.088;18.268;2023-08-24T04:01:28;23.35;80.29
80676;SHT30;70041;46.088;18.268;2023-08-24T04:03:54;23.27;80.74
80676;SHT30;70041;46.088;18.268;2023-08-24T04:06:19;23.20;81.08
80676;SHT30;70041;46.088;18.268;2023-08-24T04:08:45;23.20;81.23
80676;SHT30;70041;46.088;18.268;2023-08-24T04:11:10;23.20;81.46
80676;SHT30;70041;46.088;18.268;2023-08-24T04:13:35;23.14;81.52
80676;SHT30;70041;46.088;18.268;2023-08-24T04:16:01;23.17;81.67
80676;SHT30;70041;46.088;18.268;2023-08-24T04:18:26;23.25;81.46
80676;SHT30;70041;46.088;18.268;2023-08-24T04:20:52;23.24;81.66
80676;SHT30;70041;46.088;18.268;2023-08-24T04:23:24;23.25;81.34
80676;SHT30;70041;46.088;18.268;2023-08-24T04:25:51;23.34;80.90
80676;SHT30;70041;46.088;18.268;2023-08-24T04:28:16;23.28;81.12
80676;SHT30;70041;46.088;18.268;2023-08-24T04:30:52;23.15;82.01
80676;SHT30;70041;46.088;18.268;2023-08-24T04:33:18;23.14;81.86
80676;SHT30;70041;46.088;18.268;2023-08-24T04:35:46;23.15;81.92
80676;SHT30;70041;46.088;18.268;2023-08-24T04:38:12;23.10;82.11
80676;SHT30;70041;46.088;18.268;2023-08-24T04:40:52;23.13;82.23
80676;SHT30;70041;46.088;18.268;2023-08-24T04:43:20;23.17;81.75
80676;SHT30;70041;46.088;18.268;2023-08-24T04:45:50;23.18;81.69
80676;SHT30;70041;46.088;18.268;2023-08-24T04:48:22;23.21;81.83
80676;SHT30;70041;46.088;18.268;2023-08-24T04:50:48;23.17;81.78
80676;SHT30;70041;46.088;18.268;2023-08-24T04:53:16;23.18;81.87
80676;SHT30;70041;46.088;18.268;2023-08-24T04:55:42;23.25;81.85
80676;SHT30;70041;46.088;18.268;2023-08-24T04:58:08;23.30;81.99
80676;SHT30;70041;46.088;18.268;2023-08-24T05:00:35;23.24;81.83
80676;SHT30;70041;46.088;18.268;2023-08-24T05:03:01;23.27;82.04
80676;SHT30;70041;46.088;18.268;2023-08-24T05:05:29;23.30;81.63
80676;SHT30;70041;46.088;18.268;2023-08-24T05:07:55;23.30;81.72
80676;SHT30;70041;46.088;18.268;2023-08-24T05:10:21;23.34;81.74
80676;SHT30;70041;46.088;18.268;2023-08-24T05:12:46;23.43;81.59
80676;SHT30;70041;46.088;18.268;2023-08-24T05:15:12;23.44;81.68
80676;SHT30;70041;46.088;18.268;2023-08-24T05:17:39;23.41;81.71
80676;SHT30;70041;46.088;18.268;2023-08-24T05:20:04;23.45;81.42
80676;SHT30;70041;46.088;18.268;2023-08-24T05:22:30;23.47;81.73
80676;SHT30;70041;46.088;18.268;2023-08-24T05:24:55;23.44;81.77
80676;SHT30;70041;46.088;18.268;2023-08-24T05:27:21;23.48;81.56
80676;SHT30;70041;46.088;18.268;2023-08-24T05:29:46;23.57;81.56
80676;SHT30;70041;46.088;18.268;2023-08-24T05:32:11;23.65;81.22
80676;SHT30;70041;46.088;18.268;2023-08-24T05:34:37;23.71;80.99
80676;SHT30;70041;46.088;18.268;2023-08-24T05:37:02;23.79;80.96
80676;SHT30;70041;46.088;18.268;2023-08-24T05:39:28;23.86;80.80
80676;SHT30;70041;46.088;18.268;2023-08-24T05:41:53;23.96;80.17
80676;SHT30;70041;46.088;18.268;2023-08-24T05:44:19;24.06;80.03
80676;SHT30;70041;46.088;18.268;2023-08-24T05:46:45;24.16;79.16
80676;SHT30;70041;46.088;18.268;2023-08-24T05:49:12;24.20;78.89
80676;SHT30;70041;46.088;18.268;2023-08-24T05:51:37;24.30;77.17
80676;SHT30;70041;46.088;18.268;2023-08-24T05:54:03;24.41;75.35
80676;SHT30;70041;46.088;18.268;2023-08-24T05:56:29;24.49;75.40
80676;SHT30;70041;46.088;18.268;2023-08-24T05:58:54;24.63;75.23
80676;SHT30;70041;46.088;18.268;2023-08-24T06:01:20;24.73;74.75
80676;SHT30;70041;46.088;18.268;2023-08-24T06:03:46;24.81;74.96
80676;SHT30;70041;46.088;18.268;2023-08-24T06:06:11;24.86;74.94
80676;SHT30;70041;46.088;18.268;2023-08-24T06:08:37;24.88;75.55
80676;SHT30;70041;46.088;18.268;2023-08-24T06:11:02;25.08;74.44
80676;SHT30;70041;46.088;18.268;2023-08-24T06:13:28;25.21;74.15
80676;SHT30;70041;46.088;18.268;2023-08-24T06:15:53;25.35;73.93
80676;SHT30;70041;46.088;18.268;2023-08-24T06:18:20;25.41;72.61
80676;SHT30;70041;46.088;18.268;2023-08-24T06:20:46;25.49;71.72
80676;SHT30;70041;46.088;18.268;2023-08-24T06:23:15;25.62;72.41
80676;SHT30;70041;46.088;18.268;2023-08-24T06:25:41;25.78;72.16
80676;SHT30;70041;46.088;18.268;2023-08-24T06:28:07;25.93;71.58
80676;SHT30;70041;46.088;18.268;2023-08-24T06:30:40;25.96;70.84
80676;SHT30;70041;46.088;18.268;2023-08-24T06:33:06;26.21;69.45
80676;SHT30;70041;46.088;18.268;2023-08-24T06:35:32;26.31;67.87
80676;SHT30;70041;46.088;18.268;2023-08-24T06:37:58;26.39;67.01
80676;SHT30;70041;46.088;18.268;2023-08-24T06:40:23;26.37;67.64
80676;SHT30;70041;46.088;18.268;2023-08-24T06:42:49;26.45;67.35
80676;SHT30;70041;46.088;18.268;2023-08-24T06:45:14;26.50;65.88
80676;SHT30;70041;46.088;18.268;2023-08-24T06:47:40;26.57;65.16
80676;SHT30;70041;46.088;18.268;2023-08-24T06:50:06;26.67;63.83
80676;SHT30;70041;46.088;18.268;2023-08-24T06:52:32;26.80;63.98
80676;SHT30;70041;46.088;18.268;2023-08-24T06:54:59;26.87;64.34
80676;SHT30;70041;46.088;18.268;2023-08-24T06:57:24;27.05;62.41
80676;SHT30;70041;46.088;18.268;2023-08-24T06:59:49;27.09;61.75
80676;SHT30;70041;46.088;18.268;2023-08-24T07:02:15;27.11;60.58
80676;SHT30;70041;46.088;18.268;2023-08-24T07:04:43;27.19;60.82
80676;SHT30;70041;46.088;18.268;2023-08-24T07:07:08;27.28;60.37
80676;SHT30;70041;46.088;18.268;2023-08-24T07:09:34;27.35;59.74
80676;SHT30;70041;46.088;18.268;2023-08-24T07:12:01;27.42;60.66
80676;SHT30;70041;46.088;18.268;2023-08-24T07:14:27;27.49;59.24
80676;SHT30;70041;46.088;18.268;2023-08-24T07:16:52;27.63;58.43
80676;SHT30;70041;46.088;18.268;2023-08-24T07:19:17;27.84;57.53
80676;SHT30;70041;46.088;18.268;2023-08-24T07:21:43;27.83;57.15
80676;SHT30;70041;46.088;18.268;2023-08-24T07:24:08;27.97;55.87
80676;SHT30;70041;46.088;18.268;2023-08-24T07:26:34;28.04;56.91
80676;SHT30;70041;46.088;18.268;2023-08-24T07:28:59;28.10;53.90
80676;SHT30;70041;46.088;18.268;2023-08-24T07:31:25;28.15;53.12
80676;SHT30;70041;46.088;18.268;2023-08-24T07:33:50;28.17;53.09
80676;SHT30;70041;46.088;18.268;2023-08-24T07:36:16;28.24;53.25
80676;SHT30;70041;46.088;18.268;2023-08-24T07:38:41;28.31;53.33
80676;SHT30;70041;46.088;18.268;2023-08-24T07:41:07;28.37;53.33
80676;SHT30;70041;46.088;18.268;2023-08-24T07:43:33;28.51;53.17
80676;SHT30;70041;46.088;18.268;2023-08-24T07:45:59;28.49;54.23
80676;SHT30;70041;46.088;18.268;2023-08-24T07:48:25;28.61;53.24
80676;SHT30;70041;46.088;18.268;2023-08-24T07:50:50;28.76;53.30
80676;SHT30;70041;46.088;18.268;2023-08-24T07:53:16;28.69;54.62
80676;SHT30;70041;46.088;18.268;2023-08-24T07:55:42;28.65;53.50
80676;SHT30;70041;46.088;18.268;2023-08-24T07:58:08;28.64;54.83
80676;SHT30;70041;46.088;18.268;2023-08-24T08:00:34;28.74;54.88
80676;SHT30;70041;46.088;18.268;2023-08-24T08:03:00;28.74;53.82
80676;SHT30;70041;46.088;18.268;2023-08-24T08:05:25;28.86;53.36
80676;SHT30;70041;46.088;18.268;2023-08-24T08:07:51;28.98;53.29
80676;SHT30;70041;46.088;18.268;2023-08-24T08:10:16;29.02;53.67
80676;SHT30;70041;46.088;18.268;2023-08-24T08:12:42;29.07;52.30
80676;SHT30;70041;46.088;18.268;2023-08-24T08:15:08;29.06;52.79
80676;SHT30;70041;46.088;18.268;2023-08-24T08:17:33;29.19;53.39
80676;SHT30;70041;46.088;18.268;2023-08-24T08:19:59;29.42;52.41
80676;SHT30;70041;46.088;18.268;2023-08-24T08:22:24;29.56;51.51
80676;SHT30;70041;46.088;18.268;2023-08-24T08:24:54;29.61;51.89
80676;SHT30;70041;46.088;18.268;2023-08-24T08:27:20;29.64;51.82
80676;SHT30;70041;46.088;18.268;2023-08-24T08:29:46;29.73;51.29
80676;SHT30;70041;46.088;18.268;2023-08-24T08:32:12;29.74;51.59
80676;SHT30;70041;46.088;18.268;2023-08-24T08:34:38;29.81;52.42
80676;SHT30;70041;46.088;18.268;2023-08-24T08:37:03;29.85;51.67
80676;SHT30;70041;46.088;18.268;2023-08-24T08:39:29;29.97;51.47
80676;SHT30;70041;46.088;18.268;2023-08-24T08:41:54;29.96;51.29
80676;SHT30;70041;46.088;18.268;2023-08-24T08:44:21;29.94;51.29
80676;SHT30;70041;46.088;18.268;2023-08-24T08:46:49;29.92;51.52
80676;SHT30;70041;46.088;18.268;2023-08-24T08:49:16;29.94;51.74
80676;SHT30;70041;46.088;18.268;2023-08-24T08:51:41;30.01;51.69
80676;SHT30;70041;46.088;18.268;2023-08-24T08:54:07;29.98;51.46
80676;SHT30;70041;46.088;18.268;2023-08-24T08:56:33;30.02;51.36
80676;SHT30;70041;46.088;18.268;2023-08-24T08:58:59;30.08;51.21
80676;SHT30;70041;46.088;18.268;2023-08-24T09:01:28;30.14;51.78
80676;SHT30;70041;46.088;18.268;2023-08-24T09:03:54;30.17;52.36
80676;SHT30;70041;46.088;18.268;2023-08-24T09:06:20;30.12;51.53
80676;SHT30;70041;46.088;18.268;2023-08-24T09:08:47;30.17;51.55
80676;SHT30;70041;46.088;18.268;2023-08-24T09:11:12;30.24;51.61
80676;SHT30;70041;46.088;18.268;2023-08-24T09:13:39;30.36;51.10
80676;SHT30;70041;46.088;18.268;2023-08-24T09:16:06;30.49;51.25
80676;SHT30;70041;46.088;18.268;2023-08-24T09:18:39;30.58;50.73
80676;SHT30;70041;46.088;18.268;2023-08-24T09:21:13;30.69;50.93
80676;SHT30;70041;46.088;18.268;2023-08-24T09:23:55;30.75;49.86
80676;SHT30;70041;46.088;18.268;2023-08-24T09:26:30;30.83;48.63
80676;SHT30;70041;46.088;18.268;2023-08-24T09:28:57;30.78;47.84
80676;SHT30;70041;46.088;18.268;2023-08-24T09:31:23;30.84;48.72
80676;SHT30;70041;46.088;18.268;2023-08-24T09:33:49;30.93;46.73
80676;SHT30;70041;46.088;18.268;2023-08-24T09:36:15;30.91;46.24
80676;SHT30;70041;46.088;18.268;2023-08-24T09:38:47;31.01;46.40
80676;SHT30;70041;46.088;18.268;2023-08-24T09:41:17;31.07;44.08
80676;SHT30;70041;46.088;18.268;2023-08-24T09:43:42;31.13;47.09
80676;SHT30;70041;46.088;18.268;2023-08-24T09:46:07;31.27;47.97
80676;SHT30;70041;46.088;18.268;2023-08-24T09:48:33;31.27;47.08
80676;SHT30;70041;46.088;18.268;2023-08-24T09:51:02;31.37;45.82
80676;SHT30;70041;46.088;18.268;2023-08-24T09:53:28;31.41;46.19
80676;SHT30;70041;46.088;18.268;2023-08-24T09:56:01;31.42;45.42
80676;SHT30;70041;46.088;18.268;2023-08-24T09:58:28;31.44;45.31
80676;SHT30;70041;46.088;18.268;2023-08-24T10:00:55;31.41;45.04
80676;SHT30;70041;46.088;18.268;2023-08-24T10:03:24;31.47;41.66
80676;SHT30;70041;46.088;18.268;2023-08-24T10:05:57;31.48;43.28
80676;SHT30;70041;46.088;18.268;2023-08-24T10:08:35;31.51;43.33
80676;SHT30;70041;46.088;18.268;2023-08-24T10:11:01;31.48;43.98
80676;SHT30;70041;46.088;18.268;2023-08-24T10:13:44;31.55;45.01
80676;SHT30;70041;46.088;18.268;2023-08-24T10:16:12;31.58;45.63
80676;SHT30;70041;46.088;18.268;2023-08-24T10:18:40;31.78;45.07
80676;SHT30;70041;46.088;18.268;2023-08-24T10:21:07;31.84;45.81
80676;SHT30;70041;46.088;18.268;2023-08-24T10:23:34;31.84;44.60
80676;SHT30;70041;46.088;18.268;2023-08-24T10:26:02;31.75;44.87
80676;SHT30;70041;46.088;18.268;2023-08-24T10:28:29;31.81;45.55
80676;SHT30;70041;46.088;18.268;2023-08-24T10:30:59;32.13;44.29
80676;SHT30;70041;46.088;18.268;2023-08-24T10:33:25;32.21;43.23
80676;SHT30;70041;46.088;18.268;2023-08-24T10:35:52;32.35;43.31
80676;SHT30;70041;46.088;18.268;2023-08-24T10:38:28;32.39;43.83
80676;SHT30;70041;46.088;18.268;2023-08-24T10:41:02;32.69;42.02
80676;SHT30;70041;46.088;18.268;2023-08-24T10:43:37;33.20;41.06
80676;SHT30;70041;46.088;18.268;2023-08-24T10:46:03;33.50;42.92
80676;SHT30;70041;46.088;18.268;2023-08-24T10:48:57;34.02;39.36
80676;SHT30;70041;46.088;18.268;2023-08-24T10:51:24;34.10;40.71
80676;SHT30;70041;46.088;18.268;2023-08-24T10:53:59;33.89;40.81
80676;SHT30;70041;46.088;18.268;2023-08-24T10:56:39;33.65;40.65
80676;SHT30;70041;46.088;18.268;2023-08-24T10:59:17;33.57;41.51
80676;SHT30;70041;46.088;18.268;2023-08-24T11:01:55;33.59;41.65
80676;SHT30;70041;46.088;18.268;2023-08-24T11:04:20;33.54;41.47
80676;SHT30;70041;46.088;18.268;2023-08-24T11:06:59;33.33;42.11
80676;SHT30;70041;46.088;18.268;2023-08-24T11:09:45;33.21;44.03
80676;SHT30;70041;46.088;18.268;2023-08-24T11:12:11;33.43;44.46
80676;SHT30;70041;46.088;18.268;2023-08-24T11:14:52;33.43;42.45
80676;SHT30;70041;46.088;18.268;2023-08-24T11:17:20;33.50;44.77
80676;SHT30;70041;46.088;18.268;2023-08-24T11:19:51;33.31;41.95
80676;SHT30;70041;46.088;18.268;2023-08-24T11:22:19;33.54;41.41
80676;SHT30;70041;46.088;18.268;2023-08-24T11:24:46;33.59;41.40
80676;SHT30;70041;46.088;18.268;2023-08-24T11:27:12;33.61;42.42
80676;SHT30;70041;46.088;18.268;2023-08-24T11:29:37;33.44;42.20
80676;SHT30;70041;46.088;18.268;2023-08-24T11:32:03;33.35;43.11
80676;SHT30;70041;46.088;18.268;2023-08-24T11:34:29;33.37;42.85
80676;SHT30;70041;46.088;18.268;2023-08-24T11:36:55;33.75;43.18
80676;SHT30;70041;46.088;18.268;2023-08-24T11:39:22;34.02;40.71
80676;SHT30;70041;46.088;18.268;2023-08-24T11:42:05;34.22;41.07
80676;SHT30;70041;46.088;18.268;2023-08-24T11:44:51;34.12;41.35
80676;SHT30;70041;46.088;18.268;2023-08-24T11:47:19;33.76;41.34
80676;SHT30;70041;46.088;18.268;2023-08-24T11:49:46;33.50;41.47
80676;SHT30;70041;46.088;18.268;2023-08-24T11:52:11;33.40;43.11
80676;SHT30;70041;46.088;18.268;2023-08-24T11:54:36;33.50;43.58
80676;SHT30;70041;46.088;18.268;2023-08-24T11:57:08;33.59;43.86
80676;SHT30;70041;46.088;18.268;2023-08-24T11:59:37;33.64;43.74
80676;SHT30;70041;46.088;18.268;2023-08-24T12:02:04;33.68;44.48
80676;SHT30;70041;46.088;18.268;2023-08-24T12:04:40;33.71;42.97
80676;SHT30;70041;46.088;18.268;2023-08-24T12:07:13;33.55;44.11
80676;SHT30;70041;46.088;18.268;2023-08-24T12:09:40;33.58;43.19
80676;SHT30;70041;46.088;18.268;2023-08-24T12:12:05;33.74;43.82
80676;SHT30;70041;46.088;18.268;2023-08-24T12:14:40;33.89;43.03
80676;SHT30;70041;46.088;18.268;2023-08-24T12:17:09;34.02;43.26
80676;SHT30;70041;46.088;18.268;2023-08-24T12:19:35;34.04;43.86
80676;SHT30;70041;46.088;18.268;2023-08-24T12:22:00;33.99;42.18
80676;SHT30;70041;46.088;18.268;2023-08-24T12:24:26;33.66;42.18
80676;SHT30;70041;46.088;18.268;2023-08-24T12:26:57;33.31;42.28
80676;SHT30;70041;46.088;18.268;2023-08-24T12:29:24;33.28;42.05
80676;SHT30;70041;46.088;18.268;2023-08-24T12:31:50;33.53;42.07
80676;SHT30;70041;46.088;18.268;2023-08-24T12:34:15;33.33;41.74
80676;SHT30;70041;46.088;18.268;2023-08-24T12:36:41;33.47;43.43
80676;SHT30;70041;46.088;18.268;2023-08-24T12:39:10;33.14;43.47
80676;SHT30;70041;46.088;18.268;2023-08-24T12:41:35;33.04;44.32
80676;SHT30;70041;46.088;18.268;2023-08-24T12:44:01;33.06;44.27
80676;SHT30;70041;46.088;18.268;2023-08-24T12:46:31;33.41;44.22
80676;SHT30;70041;46.088;18.268;2023-08-24T12:48:56;33.64;43.97
80676;SHT30;70041;46.088;18.268;2023-08-24T12:51:22;34.19;42.95
80676;SHT30;70041;46.088;18.268;2023-08-24T12:53:49;35.01;39.91
80676;SHT30;70041;46.088;18.268;2023-08-24T12:56:14;36.00;38.10
80676;SHT30;70041;46.088;18.268;2023-08-24T12:58:40;37.32;36.12
80676;SHT30;70041;46.088;18.268;2023-08-24T13:01:05;37.88;34.96
80676;SHT30;70041;46.088;18.268;2023-08-24T13:03:32;38.36;33.88
80676;SHT30;70041;46.088;18.268;2023-08-24T13:05:57;38.21;34.10
80676;SHT30;70041;46.088;18.268;2023-08-24T13:08:23;39.00;33.20
80676;SHT30;70041;46.088;18.268;2023-08-24T13:10:49;38.41;33.95
80676;SHT30;70041;46.088;18.268;2023-08-24T13:13:16;38.21;34.24
80676;SHT30;70041;46.088;18.268;2023-08-24T13:15:41;37.39;35.90
80676;SHT30;70041;46.088;18.268;2023-08-24T13:18:07;36.43;37.75
80676;SHT30;70041;46.088;18.268;2023-08-24T13:20:32;36.33;38.40
80676;SHT30;70041;46.088;18.268;2023-08-24T13:22:57;35.86;39.21
80676;SHT30;70041;46.088;18.268;2023-08-24T13:25:23;35.47;39.27
80676;SHT30;70041;46.088;18.268;2023-08-24T13:27:48;35.81;39.10
80676;SHT30;70041;46.088;18.268;2023-08-24T13:30:14;36.30;38.02
80676;SHT30;70041;46.088;18.268;2023-08-24T13:32:39;37.37;36.06
80676;SHT30;70041;46.088;18.268;2023-08-24T13:35:05;38.57;35.05
80676;SHT30;70041;46.088;18.268;2023-08-24T13:37:30;39.29;34.04
80676;SHT30;70041;46.088;18.268;2023-08-24T13:39:58;40.45;32.29
80676;SHT30;70041;46.088;18.268;2023-08-24T13:42:24;40.65;32.83
80676;SHT30;70041;46.088;18.268;2023-08-24T13:44:49;40.30;32.21
80676;SHT30;70041;46.088;18.268;2023-08-24T13:47:15;40.37;32.23
80676;SHT30;70041;46.088;18.268;2023-08-24T13:49:40;40.71;31.41
80676;SHT30;70041;46.088;18.268;2023-08-24T13:52:06;40.33;31.53
80676;SHT30;70041;46.088;18.268;2023-08-24T13:54:32;41.32;30.79
80676;SHT30;70041;46.088;18.268;2023-08-24T13:56:57;41.70;29.66
80676;SHT30;70041;46.088;18.268;2023-08-24T13:59:25;41.63;30.36
80676;SHT30;70041;46.088;18.268;2023-08-24T14:01:51;40.48;31.75
80676;SHT30;70041;46.088;18.268;2023-08-24T14:04:16;40.29;31.39
80676;SHT30;70041;46.088;18.268;2023-08-24T14:06:41;40.06;32.05
80676;SHT30;70041;46.088;18.268;2023-08-24T14:09:07;39.29;33.56
80676;SHT30;70041;46.088;18.268;2023-08-24T14:11:32;38.41;35.20
80676;SHT30;70041;46.088;18.268;2023-08-24T14:13:59;37.76;37.19
80676;SHT30;70041;46.088;18.268;2023-08-24T14:16:25;37.28;37.71
80676;SHT30;70041;46.088;18.268;2023-08-24T14:18:51;36.84;37.02
80676;SHT30;70041;46.088;18.268;2023-08-24T14:21:17;36.47;38.00
80676;SHT30;70041;46.088;18.268;2023-08-24T14:23:43;36.29;38.30
80676;SHT30;70041;46.088;18.268;2023-08-24T14:26:09;36.22;38.12
80676;SHT30;70041;46.088;18.268;2023-08-24T14:28:49;36.25;38.55
80676;SHT30;70041;46.088;18.268;2023-08-24T14:31:16;36.16;38.10
80676;SHT30;70041;46.088;18.268;2023-08-24T14:33:42;35.96;38.70
80676;SHT30;70041;46.088;18.268;2023-08-24T14:36:07;35.44;39.86
80676;SHT30;70041;46.088;18.268;2023-08-24T14:38:33;36.12;38.93
80676;SHT30;70041;46.088;18.268;2023-08-24T14:40:58;36.59;37.98
80676;SHT30;70041;46.088;18.268;2023-08-24T14:43:27;37.69;36.38
80676;SHT30;70041;46.088;18.268;2023-08-24T14:45:53;38.15;35.46
80676;SHT30;70041;46.088;18.268;2023-08-24T14:48:19;38.64;34.96
80676;SHT30;70041;46.088;18.268;2023-08-24T14:50:44;39.17;34.05
80676;SHT30;70041;46.088;18.268;2023-08-24T14:53:10;39.86;32.89
80676;SHT30;70041;46.088;18.268;2023-08-24T14:55:38;40.19;32.80
80676;SHT30;70041;46.088;18.268;2023-08-24T14:58:03;40.67;32.05
80676;SHT30;70041;46.088;18.268;2023-08-24T15:00:29;40.83;31.87
80676;SHT30;70041;46.088;18.268;2023-08-24T15:02:54;40.77;31.38
80676;SHT30;70041;46.088;18.268;2023-08-24T15:05:19;39.32;33.62
80676;SHT30;70041;46.088;18.268;2023-08-24T15:07:45;37.90;35.90
80676;SHT30;70041;46.088;18.268;2023-08-24T15:10:10;36.56;38.14
80676;SHT30;70041;46.088;18.268;2023-08-24T15:12:36;35.78;38.87
80676;SHT30;70041;46.088;18.268;2023-08-24T15:15:02;35.11;39.65
80676;SHT30;70041;46.088;18.268;2023-08-24T15:17:30;34.63;41.29
80676;SHT30;70041;46.088;18.268;2023-08-24T15:19:56;34.83;40.98
80676;SHT30;70041;46.088;18.268;2023-08-24T15:22:22;34.66;40.98